Latest Weather Observations for Broome

IDW60801

Issued at 7:33 am WST Wednesday 18 September 2019 (issued every 10 minutes, with the page automatically refreshed every 10 minutes)

About weather observations | Map of weather stations | Latest weather observations for WA | Other Formats
Station Details ID: 003003 Name: BROOME AIRPORT Lat: -17.95 Lon: 122.24 Height: 7.42 m
Data from the previous 72 hours. | See also: Recent months at Broome
Date/Time
WST
Temp
°C
App
Temp
°C
Dew
Point
°C
Rel
Hum
%
Delta-T
°C
Wind Press
QNH
hPa
Press
MSL
hPa
Rain since
9am
mm
Dir  Spd
km/h
Gust
km/h
Spd
kts
Gust
kts
18/07:00am 20.9 25.0 20.7 99 0.1 CALM 0 0 0 0 1016.7 1016.6 0.0
18/06:30am 19.7 23.2 19.5 99 0.1 CALM 0 0 0 0 1016.3 1016.2 0.0
18/06:00am 19.8 23.2 19.3 97 0.3 CALM 0 0 0 0 1016.1 1016.0 0.0
18/05:30am 17.0 19.3 16.8 99 0.1 CALM 0 0 0 0 1015.9 1015.8 0.0
18/05:16am 16.7 18.8 16.2 97 0.3 CALM 0 0 0 0 1015.8 1015.7 0.0
18/05:13am 16.6 18.6 16.1 97 0.3 CALM 0 0 0 0 1015.7 1015.6 0.0
18/05:00am 16.3 18.2 15.8 97 0.3 CALM 0 0 0 0 1015.7 1015.6 0.0
18/04:30am 16.7 18.9 16.4 98 0.2 CALM 0 0 0 0 1015.5 1015.4 0.0
18/04:00am 17.5 20.0 17.2 98 0.2 CALM 0 0 0 0 1015.2 1015.1 0.0
18/03:44am 18.0 20.7 17.8 99 0.1 CALM 0 0 0 0 1015.2 1015.1 0.0
18/03:33am 17.8 20.4 17.6 99 0.1 CALM 0 0 0 0 1015.0 1014.9 0.0
18/03:30am 17.7 20.3 17.5 99 0.1 CALM 0 0 0 0 1015.1 1015.0 0.0
18/03:00am 17.0 19.3 16.8 99 0.1 CALM 0 0 0 0 1014.9 1014.8 0.0
18/02:51am 17.1 19.5 16.9 99 0.1 CALM 0 0 0 0 1014.9 1014.8 0.0
18/02:33am 17.4 19.8 16.9 97 0.3 CALM 0 0 0 0 1014.8 1014.7 0.0
18/02:32am 17.4 19.8 16.9 97 0.3 CALM 0 0 0 0 1014.8 1014.7 0.0
18/02:30am 17.3 19.7 17.1 99 0.1 CALM 0 0 0 0 1014.8 1014.7 0.0
18/02:14am 17.6 20.1 17.3 98 0.2 CALM 0 0 0 0 1014.9 1014.8 0.0
18/02:00am 16.7 18.8 16.2 97 0.3 CALM 0 0 0 0 1014.9 1014.8 0.0
18/01:30am 17.8 20.4 17.5 98 0.2 CALM 0 0 0 0 1015.1 1015.0 0.0
18/01:20am 18.2 21.0 18.0 99 0.1 CALM 0 0 0 0 1015.2 1015.1 0.0
18/01:00am 17.9 20.5 17.6 98 0.2 CALM 0 0 0 0 1015.3 1015.2 0.0
18/12:30am 17.7 20.3 17.4 98 0.2 CALM 0 0 0 0 1015.2 1015.1 0.0
18/12:00am 18.0 20.7 17.7 98 0.2 CALM 0 0 0 0 1015.4 1015.3 0.0
 
Date/Time
WST
Temp
°C
App
Temp
°C
Dew
Point
°C
Rel
Hum
%
Delta-T
°C
Wind Press
QNH
hPa
Press
MSL
hPa
Rain since
9am
mm
Dir  Spd
km/h
Gust
km/h
Spd
kts
Gust
kts
17/11:34pm 18.5 21.4 18.2 98 0.2 CALM 0 0 0 0 1015.7 1015.6 0.0
17/11:30pm 18.9 21.8 18.3 96 0.4 CALM 0 0 0 0 1015.7 1015.6 0.0
17/11:01pm 19.7 23.1 19.4 98 0.2 CALM 0 0 0 0 1015.8 1015.7 0.0
17/11:00pm 19.9 23.3 19.4 97 0.3 CALM 0 0 0 0 1015.8 1015.7 0.0
17/10:30pm 19.8 23.2 19.3 97 0.3 CALM 0 0 0 0 1016.0 1015.9 0.0
17/10:00pm 19.8 21.7 19.0 95 0.5 N 7 9 4 5 1016.2 1016.1 0.0
17/09:30pm 20.9 23.2 19.8 93 0.7 N 7 9 4 5 1016.3 1016.2 0.0
17/09:00pm 23.3 26.0 21.3 88 1.3 NNW 9 11 5 6 1016.2 1016.1 0.0
17/08:30pm 23.7 26.4 21.4 87 1.5 NW 9 13 5 7 1015.8 1015.7 0.0
17/08:00pm 23.9 26.1 21.2 85 1.8 NW 11 13 6 7 1015.3 1015.2 0.0
17/07:30pm 24.2 26.3 21.0 82 2.1 WNW 11 15 6 8 1015.0 1014.9 0.0
17/07:00pm 24.5 26.5 20.8 80 2.4 NW 11 15 6 8 1014.8 1014.7 0.0
17/06:30pm 24.7 26.6 20.6 78 2.7 NW 11 15 6 8 1014.5 1014.4 0.0
17/06:00pm 25.0 26.4 20.4 75 3.0 WNW 13 20 7 11 1014.1 1014.0 0.0
17/05:30pm 25.7 26.3 20.3 72 3.5 WNW 17 24 9 13 1013.8 1013.7 0.0
17/05:00pm 26.5 25.9 19.7 66 4.4 WNW 22 30 12 16 1013.5 1013.4 0.0
17/04:30pm 27.1 25.7 18.7 60 5.4 WNW 24 30 13 16 1013.3 1013.2 0.0
17/04:00pm 28.5 27.3 17.6 51 6.9 WNW 20 30 11 16 1013.3 1013.2 0.0
17/03:30pm 28.4 25.9 17.1 50 7.1 WNW 26 33 14 18 1013.5 1013.4 0.0
17/03:00pm 29.3 27.3 17.3 48 7.6 WNW 24 32 13 17 1013.7 1013.6 0.0
17/02:30pm 29.2 26.9 15.7 44 8.3 NW 22 30 12 16 1013.9 1013.8 0.0
17/02:00pm 28.9 26.8 16.2 46 7.9 WNW 22 32 12 17 1014.2 1014.1 0.0
17/01:30pm 28.7 26.4 16.7 48 7.5 NW 24 32 13 17 1014.7 1014.6 0.0
17/01:00pm 28.9 26.2 15.5 44 8.2 WNW 24 32 13 17 1015.0 1014.9 0.0
17/12:30pm 28.8 26.1 14.6 42 8.6 WNW 22 28 12 15 1015.3 1015.2 0.0
17/12:00pm 28.9 27.3 16.5 47 7.7 WNW 20 30 11 16 1015.8 1015.7 0.0
17/11:30am 28.7 27.1 14.9 43 8.4 WNW 17 26 9 14 1016.2 1016.1 0.0
17/11:00am 29.3 27.8 16.3 45 8.1 NW 19 26 10 14 1016.7 1016.6 0.0
17/10:30am 28.6 27.1 14.1 41 8.7 WNW 15 22 8 12 1017.0 1016.9 0.0
17/10:00am 28.4 26.2 12.2 36 9.4 WNW 15 20 8 11 1017.2 1017.1 0.0
17/09:30am 28.0 27.5 15.0 45 7.9 WNW 11 20 6 11 1017.2 1017.1 0.0
17/09:00am 27.2 27.2 18.0 57 5.8 NNW 15 20 8 11 1017.4 1017.3 0.2
17/08:30am 26.3 26.6 18.8 63 4.8 WNW 15 20 8 11 1016.5 1016.4 0.0
17/08:00am 25.8 26.9 19.6 68 4.0 NW 13 17 7 9 1016.5 1016.4 0.0
17/07:30am 23.1 25.7 20.5 85 1.7 N 7 9 4 5 1016.4 1016.3 0.0
17/07:00am 19.5 21.2 18.5 94 0.6 N 7 11 4 6 1016.1 1016.0 0.0
17/06:30am 17.4 19.0 16.9 97 0.3 NNE 4 9 2 5 1015.7 1015.6 0.0
17/06:00am 16.9 17.4 16.6 98 0.2 NNE 9 11 5 6 1015.2 1015.1 0.0
17/05:30am 17.6 18.7 17.1 97 0.3 NNE 7 11 4 6 1014.6 1014.5 0.0
17/05:00am 19.0 20.9 18.5 97 0.3 ESE 6 11 3 6 1014.0 1013.9 0.0
17/04:30am 21.6 23.5 20.5 93 0.7 SSE 11 17 6 9 1013.5 1013.4 0.0
17/04:01am 18.4 19.2 17.4 94 0.6 SSW 9 11 5 6 1013.4 1013.3 0.0
17/04:00am 18.3 19.1 17.3 94 0.6 SSW 9 11 5 6 1013.4 1013.3 0.0
17/03:30am 16.3 18.3 16.0 98 0.2 CALM 0 0 0 0 1013.5 1013.4 0.0
17/03:09am 16.3 18.2 15.8 97 0.3 CALM 0 0 0 0 1013.5 1013.4 0.0
17/03:00am 16.2 17.6 15.5 96 0.4 NNE 2 6 1 3 1013.5 1013.4 0.0
17/02:30am 16.8 17.8 16.3 97 0.3 NNE 6 9 3 5 1013.6 1013.5 0.0
17/02:00am 16.6 17.4 15.9 96 0.4 NNE 6 11 3 6 1013.6 1013.5 0.0
17/01:30am 17.3 17.8 16.6 96 0.4 NNE 9 13 5 7 1013.9 1013.8 0.0
17/01:00am 18.3 20.7 17.0 92 0.8 CALM 0 0 0 0 1013.8 1013.7 0.0
17/12:30am 18.1 20.5 17.1 94 0.6 CALM 0 0 0 0 1013.9 1013.8 0.0
17/12:00am 17.1 18.5 16.3 95 0.5 ENE 4 7 2 4 1014.2 1014.1 0.0
 
Date/Time
WST
Temp
°C
App
Temp
°C
Dew
Point
°C
Rel
Hum
%
Delta-T
°C
Wind Press
QNH
hPa
Press
MSL
hPa
Rain since
9am
mm
Dir  Spd
km/h
Gust
km/h
Spd
kts
Gust
kts
16/11:30pm 18.7 21.4 17.7 94 0.6 CALM 0 4 0 2 1014.4 1014.3 0.0
16/11:00pm 19.1 20.6 18.0 93 0.7 ENE 7 15 4 8 1014.5 1014.4 0.0
16/10:30pm 18.4 20.8 16.9 91 0.9 CALM 0 0 0 0 1014.7 1014.6 0.0
16/10:00pm 19.2 21.7 17.2 88 1.2 CALM 0 0 0 0 1014.9 1014.8 0.0
16/09:30pm 19.5 22.3 17.9 90 1.0 CALM 0 0 0 0 1015.2 1015.1 0.0
16/09:00pm 19.9 22.2 18.6 92 0.8 N 4 6 2 3 1014.9 1014.8 0.0
16/08:30pm 20.1 22.1 18.7 92 0.9 NNE 6 7 3 4 1015.0 1014.9 0.0
16/08:00pm 20.0 21.4 17.9 88 1.3 NNE 7 9 4 5 1014.7 1014.6 0.0
16/07:30pm 21.6 23.7 18.9 84 1.7 NNE 6 7 3 4 1014.3 1014.2 0.0
16/07:00pm 22.9 26.3 19.3 80 2.3 CALM 0 0 0 0 1013.8 1013.7 0.0
16/06:30pm 24.4 26.6 19.7 75 3.0 NW 7 11 4 6 1013.3 1013.2 0.0
16/06:00pm 25.1 26.0 19.3 70 3.7 WNW 13 19 7 10 1012.8 1012.7 0.0
16/05:30pm 25.8 26.2 19.8 69 3.9 WNW 17 20 9 11 1012.6 1012.5 0.0
16/05:00pm 26.7 26.3 19.4 64 4.7 WNW 20 26 11 14 1012.6 1012.5 0.0
16/04:30pm 27.3 26.5 19.2 61 5.2 WNW 22 28 12 15 1012.5 1012.4 0.0
16/04:00pm 27.5 25.9 18.4 57 5.8 W 24 32 13 17 1012.4 1012.3 0.0
16/03:30pm 27.6 26.9 19.4 61 5.3 W 22 30 12 16 1012.7 1012.6 0.0
16/03:00pm 28.6 26.9 18.1 53 6.7 WNW 24 32 13 17 1012.8 1012.7 0.0
16/02:30pm 29.2 27.3 16.7 46 7.8 W 22 32 12 17 1012.9 1012.8 0.0
16/02:00pm 29.4 26.9 16.2 44 8.2 WNW 24 32 13 17 1013.0 1012.9 0.0
16/01:30pm 29.1 27.3 17.0 48 7.6 W 22 28 12 15 1013.4 1013.3 0.0
16/01:00pm 29.6 27.9 17.2 47 7.8 W 22 28 12 15 1013.8 1013.7 0.0
16/12:30pm 29.1 27.6 16.4 46 7.9 W 19 24 10 13 1014.4 1014.3 0.0
16/12:00pm 29.0 27.9 17.4 49 7.3 W 19 24 10 13 1014.7 1014.6 0.0
16/11:30am 28.8 27.1 14.6 42 8.6 W 17 22 9 12 1015.1 1015.0 0.0
16/11:00am 29.0 28.0 15.7 44 8.2 W 15 20 8 11 1015.3 1015.2 0.0
16/10:30am 28.7 28.0 16.5 47 7.6 WNW 15 20 8 11 1015.7 1015.6 0.0
16/10:00am 29.0 28.7 16.5 46 7.8 W 13 19 7 10 1015.9 1015.8 0.0
16/09:30am 28.9 28.8 13.8 39 9.0 W 7 11 4 6 1016.1 1016.0 0.0
16/09:00am 28.1 27.1 10.3 33 10.0 WSW 6 7 3 4 1016.3 1016.2 0.0
16/08:30am 27.0 26.0 10.4 35 9.3 ENE 6 7 3 4 1016.4 1016.3 0.0
16/08:00am 25.1 24.8 11.5 42 7.7 NE 4 7 2 4 1016.5 1016.4 0.0
16/07:30am 22.4 24.4 18.7 79 2.3 NNE 6 9 3 5 1016.1 1016.0 0.0
16/07:00am 19.3 22.1 18.0 92 0.8 CALM 0 0 0 0 1015.7 1015.6 0.0
16/06:30am 16.7 17.1 16.4 98 0.2 NNE 9 11 5 6 1015.5 1015.4 0.0
16/06:00am 16.7 18.8 16.2 97 0.3 CALM 0 0 0 0 1014.9 1014.8 0.0
16/05:30am 16.4 18.4 15.9 97 0.3 CALM 0 6 0 3 1014.9 1014.8 0.0
16/05:00am 16.2 16.8 15.9 98 0.2 ENE 7 9 4 5 1015.0 1014.9 0.0
16/04:53am 15.9 16.5 15.4 97 0.3 NNE 6 9 3 5 1014.9 1014.8 0.0
16/04:33am 16.2 18.2 15.9 98 0.2 CALM 0 0 0 0 1014.7 1014.6 0.0
16/04:30am 16.6 18.8 16.4 99 0.1 CALM 0 0 0 0 1014.7 1014.6 0.0
16/04:00am 16.2 16.5 15.9 98 0.2 NNE 9 11 5 6 1014.5 1014.4 0.0
16/03:30am 16.7 17.6 16.2 97 0.3 NNE 6 9 3 5 1014.1 1014.0 0.0
16/03:00am 17.8 19.8 17.0 95 0.5 N 2 11 1 6 1013.9 1013.8 0.0
16/02:30am 20.4 21.6 19.1 92 0.8 N 11 19 6 10 1013.7 1013.6 0.0
16/02:00am 22.8 24.1 20.2 85 1.7 SSW 13 20 7 11 1013.2 1013.1 0.0
16/01:30am 22.7 23.6 20.1 85 1.7 SSW 15 19 8 10 1013.4 1013.3 0.0
16/01:00am 22.6 25.0 20.9 90 1.1 SSW 9 13 5 7 1013.7 1013.6 0.0
16/12:30am 22.7 24.8 21.0 90 1.1 SSW 11 15 6 8 1013.9 1013.8 0.0
16/12:00am 21.7 24.4 20.6 93 0.7 SSW 7 9 4 5 1014.3 1014.2 0.0
 
Date/Time
WST
Temp
°C
App
Temp
°C
Dew
Point
°C
Rel
Hum
%
Delta-T
°C
Wind Press
QNH
hPa
Press
MSL
hPa
Rain since
9am
mm
Dir  Spd
km/h
Gust
km/h
Spd
kts
Gust
kts
15/11:30pm 17.3 19.2 15.8 91 0.9 CALM 0 0 0 0 1014.5 1014.4 0.0
15/11:00pm 18.7 21.2 17.2 91 0.9 CALM 0 0 0 0 1014.6 1014.5 0.0
15/10:30pm 19.4 21.9 17.3 88 1.3 CALM 0 0 0 0 1014.8 1014.7 0.0
15/10:00pm 19.0 21.4 17.0 88 1.2 CALM 0 0 0 0 1015.1 1015.0 0.0
15/09:30pm 19.4 22.0 17.4 88 1.2 CALM 0 0 0 0 1015.2 1015.1 0.0
15/09:00pm 19.0 20.5 16.7 86 1.4 SSE 4 9 2 5 1015.4 1015.3 0.0
15/08:30pm 21.2 23.5 18.6 85 1.6 SSW 4 7 2 4 1015.2 1015.1 0.0
15/08:00pm 23.4 26.1 20.3 83 2.0 S 6 9 3 5 1014.9 1014.8 0.0
15/07:30pm 24.0 26.3 19.8 77 2.7 SW 7 9 4 5 1014.4 1014.3 0.0
15/07:00pm 22.8 26.0 18.8 78 2.5 CALM 0 0 0 0 1014.1 1014.0 0.0
15/06:30pm 23.3 26.4 18.7 75 2.9 CALM 0 0 0 0 1014.0 1013.9 0.0
15/06:00pm 25.0 27.2 19.6 72 3.5 NW 7 13 4 7 1013.8 1013.7 0.0
15/05:30pm 26.0 26.4 19.0 65 4.5 WNW 15 20 8 11 1013.3 1013.2 0.0
15/05:00pm 27.0 26.1 18.2 58 5.6 WNW 20 30 11 16 1013.2 1013.1 0.0
15/04:30pm 27.5 25.4 18.0 56 6.0 WNW 26 32 14 17 1013.0 1012.9 0.0
15/04:00pm 28.0 26.2 16.0 48 7.4 WNW 20 32 11 17 1013.0 1012.9 0.0
15/03:30pm 28.5 26.1 15.4 45 8.0 WNW 22 32 12 17 1013.2 1013.1 0.0
15/03:00pm 29.1 26.4 14.6 41 8.8 WNW 22 30 12 16 1013.1 1013.0 0.0
15/02:30pm 29.4 25.8 11.8 33 10.2 WNW 22 30 12 16 1013.2 1013.1 0.0
15/02:00pm 30.4 26.0 8.8 26 12.0 W 22 30 12 16 1013.3 1013.2 0.0
15/01:30pm 30.8 26.6 8.4 24 12.4 W 20 28 11 15 1013.5 1013.4 0.0
15/01:00pm 30.4 25.2 5.5 20 13.1 W 22 32 12 17 1013.9 1013.8 0.0
15/12:30pm 30.7 26.1 6.4 21 13.0 W 20 28 11 15 1014.4 1014.3 0.0
15/12:00pm 32.8 28.7 6.3 19 14.3 SW 17 24 9 13 1014.5 1014.4 0.0
15/11:30am 31.6 29.0 5.9 20 13.7 SSW 9 19 5 10 1015.2 1015.1 0.0
15/11:00am 30.0 26.6 4.0 19 13.3 S 11 15 6 8 1015.8 1015.7 0.0
15/10:30am 30.4 26.2 1.8 16 14.1 S 13 19 7 10 1016.2 1016.1 0.0
15/10:00am 30.8 27.1 2.4 16 14.2 S 11 17 6 9 1016.6 1016.5 0.0
15/09:30am 30.1 26.9 3.1 18 13.6 S 9 13 5 7 1016.8 1016.7 0.0
15/09:00am 29.8 26.6 3.1 18 13.4 SE 9 13 5 7 1017.0 1016.9 0.0
15/08:30am 28.5 25.8 2.6 19 12.8 SE 6 9 3 5 1017.2 1017.1 0.0
15/08:00am 27.3 27.7 11.3 37 9.1 CALM 0 0 0 0 1017.2 1017.1 0.0

Other formats

Comma delimited format used in spreadsheet applications
http://www.bom.gov.au/fwo/IDW60801/IDW60801.94203.axf

JavaScript Object Notation format (JSON) in row-major order
http://www.bom.gov.au/fwo/IDW60801/IDW60801.94203.json

Data quality

Most of these data are generated automatically and are frequently updated. Quality checks on data are not normally performed. It is possible for incorrect values to appear. Refer to information at About Latest Weather Observations and please check the disclaimer before using these data.